Time;durP1;ratioP1;P1;durP2;ratioP2;P2;SDS_P1;SDS_P2;PMS_P1;PMS_P2;Temp;Humidity;BMP_temperature;BMP_pressure;BME280_temperature;BME280_humidity;BME280_pressure;Samples;Min_cycle;Max_cycle;Signal;HPM_P1;HPM_P2
2023/12/05 00:01:03;;;;;;;11.77;8.63;;;;;;;;;;5049123;28;20291;-80
2023/12/05 00:03:30;;;;;;;12.87;9.47;;;;;;;;;;5054120;28;20684;-80
2023/12/05 00:05:58;;;;;;;12.90;9.23;;;;;;;;;;5053986;28;20237;-80
2023/12/05 00:08:25;;;;;;;11.93;8.93;;;;;;;;;;5054411;28;20217;-80
2023/12/05 00:10:52;;;;;;;12.87;9.50;;;;;;;;;;5053424;28;20233;-80
2023/12/05 00:13:19;;;;;;;12.17;8.03;;;;;;;;;;5052625;28;20220;-80
2023/12/05 00:15:46;;;;;;;14.83;9.80;;;;;;;;;;5050332;28;20241;-80
2023/12/05 00:18:13;;;;;;;12.80;9.13;;;;;;;;;;5052126;28;20195;-80
2023/12/05 00:20:40;;;;;;;11.33;9.50;;;;;;;;;;5048357;28;20240;-80
2023/12/05 00:23:09;;;;;;;15.43;8.10;;;;;;;;;;5053742;28;20194;-80
2023/12/05 00:25:36;;;;;;;12.67;8.50;;;;;;;;;;5053316;28;20246;-80
2023/12/05 00:28:02;;;;;;;10.30;8.23;;;;;;;;;;5054096;28;20202;-80
2023/12/05 00:30:29;;;;;;;11.40;7.60;;;;;;;;;;5053322;28;20259;-80
2023/12/05 00:32:56;;;;;;;11.67;7.33;;;;;;;;;;5053820;28;20268;-80
2023/12/05 00:35:24;;;;;;;8.10;6.93;;;;;;;;;;5053169;28;20237;-80
2023/12/05 00:37:51;;;;;;;9.20;7.23;;;;;;;;;;5044125;28;20202;-80
2023/12/05 00:40:19;;;;;;;11.27;7.97;;;;;;;;;;5050179;28;20199;-80
2023/12/05 00:42:46;;;;;;;11.27;7.73;;;;;;;;;;5053948;28;20291;-80
2023/12/05 00:45:14;;;;;;;12.30;7.33;;;;;;;;;;5053036;28;20202;-79
2023/12/05 00:47:41;;;;;;;10.27;7.47;;;;;;;;;;5053559;28;20289;-80
2023/12/05 00:50:09;;;;;;;9.67;8.43;;;;;;;;;;5053078;28;20669;-79
2023/12/05 00:52:36;;;;;;;9.70;7.30;;;;;;;;;;5045634;28;20695;-80
2023/12/05 00:55:03;;;;;;;10.73;8.13;;;;;;;;;;5044358;28;20203;-79
2023/12/05 00:57:31;;;;;;;10.43;8.50;;;;;;;;;;5053412;28;20230;-80
2023/12/05 00:59:58;;;;;;;10.83;8.47;;;;;;;;;;5053152;28;20677;-80
2023/12/05 01:02:25;;;;;;;12.53;8.23;;;;;;;;;;5047586;28;20261;-80
2023/12/05 01:04:52;;;;;;;10.63;8.00;;;;;;;;;;5042495;28;20202;-80
2023/12/05 01:07:19;;;;;;;13.77;8.93;;;;;;;;;;5052935;28;20234;-80
2023/12/05 01:09:47;;;;;;;8.13;7.30;;;;;;;;;;5045354;28;20199;-80
2023/12/05 01:12:14;;;;;;;10.17;7.80;;;;;;;;;;5051115;28;20241;-80
2023/12/05 01:14:43;;;;;;;11.43;8.37;;;;;;;;;;5052839;28;20550;-80
2023/12/05 01:17:10;;;;;;;10.37;8.10;;;;;;;;;;5052568;28;20234;-80
2023/12/05 01:19:37;;;;;;;12.97;8.53;;;;;;;;;;5047994;28;21701;-80
2023/12/05 01:22:04;;;;;;;12.27;8.10;;;;;;;;;;5049405;28;20234;-80
2023/12/05 01:24:31;;;;;;;15.20;9.40;;;;;;;;;;5052872;28;20209;-80
2023/12/05 01:26:59;;;;;;;12.53;8.43;;;;;;;;;;5049278;28;20226;-80
2023/12/05 01:29:26;;;;;;;13.77;8.83;;;;;;;;;;5035623;28;20249;-80
2023/12/05 01:31:54;;;;;;;12.53;7.93;;;;;;;;;;5049200;28;20241;-80
2023/12/05 01:34:21;;;;;;;11.53;6.87;;;;;;;;;;5052868;28;20206;-80
2023/12/05 01:36:48;;;;;;;9.70;7.50;;;;;;;;;;5052385;28;20733;-80
2023/12/05 01:39:15;;;;;;;10.83;7.60;;;;;;;;;;5052809;28;20245;-80
2023/12/05 01:41:42;;;;;;;10.53;7.80;;;;;;;;;;5052420;28;20241;-80
2023/12/05 01:44:09;;;;;;;10.23;7.77;;;;;;;;;;5049505;28;20198;-80
2023/12/05 01:46:37;;;;;;;8.13;7.10;;;;;;;;;;5045085;28;20295;-80
2023/12/05 01:49:06;;;;;;;11.40;7.07;;;;;;;;;;5052303;28;20761;-80
2023/12/05 01:51:34;;;;;;;6.67;5.00;;;;;;;;;;5051703;28;20838;-80
2023/12/05 01:54:03;;;;;;;7.87;5.50;;;;;;;;;;5052435;28;20285;-80
2023/12/05 01:56:30;;;;;;;4.23;3.70;;;;;;;;;;5052098;28;20230;-80
2023/12/05 01:58:57;;;;;;;7.53;5.33;;;;;;;;;;5044948;28;20210;-80
2023/12/05 02:01:24;;;;;;;10.37;5.60;;;;;;;;;;5043120;28;20585;-80
2023/12/05 02:03:51;;;;;;;6.00;5.00;;;;;;;;;;5051261;28;20255;-80
2023/12/05 02:06:21;;;;;;;7.87;5.27;;;;;;;;;;5051426;28;20282;-80
2023/12/05 02:08:50;;;;;;;4.20;3.50;;;;;;;;;;5047507;28;20287;-80
2023/12/05 02:11:17;;;;;;;2.83;2.70;;;;;;;;;;5031850;28;20291;-79
2023/12/05 02:13:44;;;;;;;2.87;2.50;;;;;;;;;;5032868;28;20210;-79
2023/12/05 02:16:16;;;;;;;4.43;3.90;;;;;;;;;;5040839;28;20226;-79
2023/12/05 02:18:46;;;;;;;4.03;3.63;;;;;;;;;;5051957;28;20202;-80
2023/12/05 02:21:14;;;;;;;5.30;4.80;;;;;;;;;;5051330;28;20234;-80
2023/12/05 02:23:58;;;;;;;3.47;3.27;;;;;;;;;;5051641;28;20985;-80
2023/12/05 02:26:30;;;;;;;3.97;3.67;;;;;;;;;;5039204;28;20226;-81
2023/12/05 02:28:58;;;;;;;3.30;3.10;;;;;;;;;;5031454;28;20199;-80
2023/12/05 02:31:26;;;;;;;3.43;3.17;;;;;;;;;;5031020;28;20230;-80
2023/12/05 02:33:53;;;;;;;4.20;3.80;;;;;;;;;;5031774;28;20211;-80
2023/12/05 02:36:23;;;;;;;3.80;3.50;;;;;;;;;;5031349;28;20231;-80
2023/12/05 02:38:52;;;;;;;3.70;2.47;;;;;;;;;;5031455;28;20206;-80
2023/12/05 02:41:21;;;;;;;4.87;4.37;;;;;;;;;;5031166;28;20732;-80
2023/12/05 02:43:50;;;;;;;4.33;3.93;;;;;;;;;;5031121;28;20202;-80
2023/12/05 02:46:19;;;;;;;7.13;5.03;;;;;;;;;;5031225;28;20234;-80
2023/12/05 02:48:46;;;;;;;4.37;3.97;;;;;;;;;;5031259;28;20237;-80
2023/12/05 02:51:13;;;;;;;4.27;3.90;;;;;;;;;;5030723;28;20238;-80
2023/12/05 02:53:40;;;;;;;6.40;4.60;;;;;;;;;;5031201;28;20259;-80
2023/12/05 02:56:08;;;;;;;5.03;4.40;;;;;;;;;;5030693;28;20876;-80
2023/12/05 02:58:35;;;;;;;5.67;4.80;;;;;;;;;;5031253;28;20261;-81
2023/12/05 03:01:03;;;;;;;5.20;4.57;;;;;;;;;;5030962;28;20631;-80
2023/12/05 03:03:31;;;;;;;6.40;4.70;;;;;;;;;;5031437;28;20256;-80
2023/12/05 03:05:58;;;;;;;5.93;5.07;;;;;;;;;;5038570;28;20237;-80
2023/12/05 03:08:25;;;;;;;4.80;4.23;;;;;;;;;;5051122;28;20328;-80
2023/12/05 03:10:52;;;;;;;5.23;4.20;;;;;;;;;;5043437;28;20234;-80
2023/12/05 03:13:19;;;;;;;4.77;4.37;;;;;;;;;;5031035;28;20233;-80
2023/12/05 03:15:46;;;;;;;3.70;3.40;;;;;;;;;;5032819;28;20708;-80
2023/12/05 03:18:13;;;;;;;5.93;5.10;;;;;;;;;;5031312;28;20222;-80
2023/12/05 03:20:42;;;;;;;4.80;4.37;;;;;;;;;;5035458;28;20653;-80
2023/12/05 03:23:09;;;;;;;5.87;4.53;;;;;;;;;;5051216;28;20198;-80
2023/12/05 03:25:36;;;;;;;5.30;4.90;;;;;;;;;;5050851;28;20245;-80
2023/12/05 03:28:03;;;;;;;5.70;5.20;;;;;;;;;;5050982;28;20249;-80
2023/12/05 03:30:30;;;;;;;4.73;3.83;;;;;;;;;;5046544;28;20288;-80
2023/12/05 03:32:57;;;;;;;4.63;4.23;;;;;;;;;;5030954;28;20670;-80
2023/12/05 03:35:24;;;;;;;4.00;3.70;;;;;;;;;;5033677;28;20287;-80
2023/12/05 03:37:52;;;;;;;4.77;4.23;;;;;;;;;;5049104;28;20226;-80
2023/12/05 03:40:20;;;;;;;4.90;4.47;;;;;;;;;;5050443;28;20685;-80
2023/12/05 03:42:47;;;;;;;6.73;5.43;;;;;;;;;;5050472;28;20202;-80
2023/12/05 03:45:14;;;;;;;7.77;5.13;;;;;;;;;;5050486;28;20202;-80
2023/12/05 03:47:41;;;;;;;5.13;4.43;;;;;;;;;;5032389;28;20763;-80
2023/12/05 03:50:08;;;;;;;5.33;4.50;;;;;;;;;;5031427;28;20211;-79
2023/12/05 03:52:35;;;;;;;4.73;4.20;;;;;;;;;;5050620;28;20608;-80
2023/12/05 03:55:03;;;;;;;3.50;3.13;;;;;;;;;;5050601;28;20206;-79
2023/12/05 03:57:30;;;;;;;4.00;3.67;;;;;;;;;;5050294;28;20225;-80
2023/12/05 03:59:57;;;;;;;5.07;4.67;;;;;;;;;;5050582;28;20549;-80
2023/12/05 04:02:24;;;;;;;4.43;4.03;;;;;;;;;;5049977;28;20272;-81
2023/12/05 04:04:51;;;;;;;4.23;3.87;;;;;;;;;;5050758;28;20576;-80
2023/12/05 04:07:18;;;;;;;3.83;3.57;;;;;;;;;;5050222;28;20630;-80
2023/12/05 04:09:47;;;;;;;4.23;3.83;;;;;;;;;;5050414;28;20956;-81
2023/12/05 04:12:15;;;;;;;4.53;3.53;;;;;;;;;;5050045;28;20328;-81
2023/12/05 04:14:42;;;;;;;3.63;3.33;;;;;;;;;;5050444;28;20207;-80
2023/12/05 04:17:09;;;;;;;3.73;3.43;;;;;;;;;;5050041;28;20233;-80
2023/12/05 04:19:36;;;;;;;4.00;3.70;;;;;;;;;;5049670;28;20293;-80
2023/12/05 04:22:03;;;;;;;4.73;3.90;;;;;;;;;;5051539;28;20722;-80
2023/12/05 04:24:30;;;;;;;3.30;3.00;;;;;;;;;;5045418;28;20261;-81
2023/12/05 04:26:57;;;;;;;2.70;2.57;;;;;;;;;;5049204;28;20284;-81
2023/12/05 04:29:25;;;;;;;3.20;2.80;;;;;;;;;;5053969;28;20210;-81
2023/12/05 04:31:52;;;;;;;3.20;3.00;;;;;;;;;;5052937;28;20238;-81
2023/12/05 04:34:19;;;;;;;3.63;3.40;;;;;;;;;;5053746;28;20636;-81
2023/12/05 04:36:46;;;;;;;3.97;3.67;;;;;;;;;;5053368;28;20233;-81
2023/12/05 04:39:13;;;;;;;4.73;4.20;;;;;;;;;;5053840;28;20732;-81
2023/12/05 04:41:40;;;;;;;4.37;3.07;;;;;;;;;;5052250;28;20232;-81
2023/12/05 04:44:07;;;;;;;3.20;2.90;;;;;;;;;;5053990;28;20619;-81
2023/12/05 04:46:38;;;;;;;3.80;3.50;;;;;;;;;;5053294;28;20257;-81
2023/12/05 04:49:06;;;;;;;4.07;3.67;;;;;;;;;;5054045;28;20199;-81
2023/12/05 04:51:33;;;;;;;4.70;3.80;;;;;;;;;;5041058;28;20259;-81
2023/12/05 04:54:02;;;;;;;3.90;3.60;;;;;;;;;;5040175;28;20256;-81
2023/12/05 04:56:29;;;;;;;4.13;3.70;;;;;;;;;;5044916;28;20656;-82
2023/12/05 04:58:56;;;;;;;3.70;3.40;;;;;;;;;;5053459;28;20226;-81
2023/12/05 05:01:23;;;;;;;2.73;2.53;;;;;;;;;;5050525;28;20605;-82
2023/12/05 05:03:51;;;;;;;6.23;3.83;;;;;;;;;;5039887;28;20208;-81
2023/12/05 05:06:18;;;;;;;4.03;3.73;;;;;;;;;;5052600;28;20296;-81
2023/12/05 05:08:45;;;;;;;4.30;3.70;;;;;;;;;;5053018;28;20594;-81
2023/12/05 05:11:12;;;;;;;7.40;3.30;;;;;;;;;;5051181;28;20583;-81
2023/12/05 05:13:39;;;;;;;5.60;4.13;;;;;;;;;;5052635;28;20269;-81
2023/12/05 05:16:08;;;;;;;5.03;3.93;;;;;;;;;;5052193;28;20238;-80
2023/12/05 05:18:37;;;;;;;3.30;3.03;;;;;;;;;;5039353;28;20277;-81
2023/12/05 05:21:06;;;;;;;4.80;3.40;;;;;;;;;;5042229;28;20660;-81
2023/12/05 05:23:33;;;;;;;4.03;3.73;;;;;;;;;;5052845;28;20204;-81
2023/12/05 05:26:00;;;;;;;4.20;3.60;;;;;;;;;;5052188;28;20459;-80
2023/12/05 05:28:27;;;;;;;3.30;3.00;;;;;;;;;;5044313;28;20252;-81
2023/12/05 05:30:54;;;;;;;5.07;3.90;;;;;;;;;;5050055;28;20520;-80
2023/12/05 05:33:21;;;;;;;4.10;3.33;;;;;;;;;;5046077;28;20203;-80
2023/12/05 05:35:48;;;;;;;3.67;3.37;;;;;;;;;;5053165;28;20294;-80
2023/12/05 05:38:17;;;;;;;4.77;3.67;;;;;;;;;;5037360;28;20549;-80
2023/12/05 05:40:44;;;;;;;4.90;4.43;;;;;;;;;;5042161;28;20770;-81
2023/12/05 05:43:11;;;;;;;3.40;3.10;;;;;;;;;;5052630;28;20204;-77
2023/12/05 05:45:38;;;;;;;2.00;1.90;;;;;;;;;;5051627;28;20241;-80
2023/12/05 05:48:06;;;;;;;3.07;2.87;;;;;;;;;;5038698;28;20271;-78
2023/12/05 05:50:33;;;;;;;2.70;2.50;;;;;;;;;;5038153;28;20298;-79
2023/12/05 05:53:00;;;;;;;3.57;2.60;;;;;;;;;;5052519;28;20608;-80
2023/12/05 05:55:28;;;;;;;3.03;2.83;;;;;;;;;;5052180;28;20247;-79
2023/12/05 05:57:55;;;;;;;4.83;3.83;;;;;;;;;;5052058;28;20228;-79
2023/12/05 06:00:22;;;;;;;3.13;2.83;;;;;;;;;;5052070;28;20243;-78
2023/12/05 06:02:49;;;;;;;2.77;2.57;;;;;;;;;;5052236;28;20958;-81
2023/12/05 06:05:16;;;;;;;3.93;3.60;;;;;;;;;;5052468;28;20580;-79
2023/12/05 06:07:43;;;;;;;2.80;2.33;;;;;;;;;;5052312;28;20317;-80
2023/12/05 06:10:10;;;;;;;3.00;2.80;;;;;;;;;;5045412;28;20206;-81
2023/12/05 06:12:39;;;;;;;3.10;2.90;;;;;;;;;;5051753;28;20217;-78
2023/12/05 06:15:06;;;;;;;2.57;2.37;;;;;;;;;;5051565;28;20674;-77
2023/12/05 06:17:33;;;;;;;2.90;2.70;;;;;;;;;;5052044;28;20229;-79
2023/12/05 06:20:00;;;;;;;2.10;2.00;;;;;;;;;;5051827;28;20298;-79
2023/12/05 06:22:27;;;;;;;2.97;2.77;;;;;;;;;;5051722;28;20234;-79
2023/12/05 06:24:54;;;;;;;6.57;2.97;;;;;;;;;;5051542;28;20205;-79
2023/12/05 06:27:21;;;;;;;3.17;2.87;;;;;;;;;;5051623;28;20565;-78
2023/12/05 06:29:50;;;;;;;2.30;2.20;;;;;;;;;;5051560;28;20692;-78
2023/12/05 06:32:17;;;;;;;2.73;2.53;;;;;;;;;;5050197;28;20299;-80
2023/12/05 06:34:43;;;;;;;3.27;2.67;;;;;;;;;;5051530;28;20213;-79
2023/12/05 06:37:11;;;;;;;2.40;2.20;;;;;;;;;;5051163;28;20249;-79
2023/12/05 06:39:38;;;;;;;2.77;2.57;;;;;;;;;;5051449;28;20214;-78
2023/12/05 06:42:05;;;;;;;3.10;2.90;;;;;;;;;;5051386;28;20765;-77
2023/12/05 06:44:32;;;;;;;2.90;2.70;;;;;;;;;;5051228;28;20214;-77
2023/12/05 06:47:00;;;;;;;3.20;2.53;;;;;;;;;;5050907;28;20287;-79
2023/12/05 06:49:27;;;;;;;5.37;2.90;;;;;;;;;;5051247;28;20205;-79
2023/12/05 06:51:57;;;;;;;2.77;2.57;;;;;;;;;;5051038;28;20241;-79
2023/12/05 06:54:24;;;;;;;2.50;2.33;;;;;;;;;;5051694;28;20206;-79
2023/12/05 06:56:51;;;;;;;3.00;2.80;;;;;;;;;;5050689;28;20246;-79
2023/12/05 06:59:19;;;;;;;2.30;2.20;;;;;;;;;;5044073;28;20716;-79
2023/12/05 07:01:46;;;;;;;3.30;2.43;;;;;;;;;;5048239;28;20241;-79
2023/12/05 07:04:14;;;;;;;2.70;2.50;;;;;;;;;;5049681;28;20610;-79
2023/12/05 07:06:41;;;;;;;1.80;1.70;;;;;;;;;;5049293;28;20719;-78
2023/12/05 07:09:08;;;;;;;2.50;2.30;;;;;;;;;;5049956;28;20205;-79
2023/12/05 07:11:35;;;;;;;2.90;2.70;;;;;;;;;;5048634;28;20323;-79
2023/12/05 07:14:03;;;;;;;2.80;2.60;;;;;;;;;;5049784;28;20771;-78
2023/12/05 07:16:30;;;;;;;2.40;2.30;;;;;;;;;;5049023;28;20229;-78
2023/12/05 07:18:57;;;;;;;2.37;2.27;;;;;;;;;;5049448;28;20261;-78
2023/12/05 07:21:26;;;;;;;2.10;2.00;;;;;;;;;;5048795;28;20225;-78
2023/12/05 07:23:53;;;;;;;2.50;2.40;;;;;;;;;;5049203;28;20209;-78
2023/12/05 07:26:20;;;;;;;2.33;2.23;;;;;;;;;;5049509;28;20229;-78
2023/12/05 07:28:47;;;;;;;2.20;2.10;;;;;;;;;;5049730;28;20734;-78
2023/12/05 07:31:14;;;;;;;1.57;1.57;;;;;;;;;;5048802;28;20230;-78
2023/12/05 07:33:41;;;;;;;2.60;2.40;;;;;;;;;;5049638;28;20211;-79
2023/12/05 07:36:08;;;;;;;2.17;2.07;;;;;;;;;;5043829;28;20271;-79
2023/12/05 07:38:37;;;;;;;2.97;2.77;;;;;;;;;;5047734;28;20232;-78
2023/12/05 07:41:04;;;;;;;2.90;2.70;;;;;;;;;;5048076;28;20995;-78
2023/12/05 07:43:31;;;;;;;2.87;2.20;;;;;;;;;;5048954;28;20202;-78
2023/12/05 07:45:58;;;;;;;2.87;2.67;;;;;;;;;;5048423;28;20911;-78
2023/12/05 07:48:25;;;;;;;3.80;2.47;;;;;;;;;;5048107;28;20202;-77
2023/12/05 07:50:52;;;;;;;2.70;2.10;;;;;;;;;;5047841;28;20674;-77
2023/12/05 07:53:19;;;;;;;2.10;2.00;;;;;;;;;;5048871;28;20206;-77
2023/12/05 07:55:47;;;;;;;3.43;2.37;;;;;;;;;;5047628;28;20287;-77
2023/12/05 07:58:14;;;;;;;2.73;2.57;;;;;;;;;;5052868;28;20258;-78
2023/12/05 08:00:41;;;;;;;3.03;2.70;;;;;;;;;;5051087;28;20245;-79
2023/12/05 08:03:12;;;;;;;2.30;2.10;;;;;;;;;;5052385;28;20202;-79
2023/12/05 08:05:39;;;;;;;2.50;2.30;;;;;;;;;;5052147;28;20245;-78
2023/12/05 08:08:07;;;;;;;2.43;2.23;;;;;;;;;;5052294;28;20726;-78
2023/12/05 08:10:34;;;;;;;2.50;2.30;;;;;;;;;;5051719;28;20237;-78
2023/12/05 08:13:02;;;;;;;3.20;2.83;;;;;;;;;;5051671;28;20977;-78
2023/12/05 08:15:29;;;;;;;2.10;2.00;;;;;;;;;;5052390;28;20241;-78
2023/12/05 08:17:56;;;;;;;2.20;2.10;;;;;;;;;;5052048;28;20210;-80
2023/12/05 08:20:23;;;;;;;2.00;1.90;;;;;;;;;;5052021;28;20657;-78
2023/12/05 08:22:50;;;;;;;2.10;2.00;;;;;;;;;;5051973;28;20209;-78
2023/12/05 08:25:17;;;;;;;2.00;1.90;;;;;;;;;;5052041;28;20267;-79
2023/12/05 08:27:44;;;;;;;2.17;2.07;;;;;;;;;;5051783;28;20198;-79
2023/12/05 08:30:14;;;;;;;2.40;2.27;;;;;;;;;;5051697;28;20205;-78
2023/12/05 08:32:41;;;;;;;1.90;1.90;;;;;;;;;;5051703;28;20763;-79
2023/12/05 08:35:09;;;;;;;2.13;2.03;;;;;;;;;;5051538;28;20811;-79
2023/12/05 08:37:36;;;;;;;2.00;1.93;;;;;;;;;;5047480;28;20235;-79
2023/12/05 08:40:03;;;;;;;2.40;2.00;;;;;;;;;;5051038;28;20322;-78
2023/12/05 08:42:30;;;;;;;2.40;2.20;;;;;;;;;;5051863;28;20659;-79
2023/12/05 08:44:57;;;;;;;2.00;1.90;;;;;;;;;;5050467;28;20214;-78
2023/12/05 08:47:25;;;;;;;1.90;1.80;;;;;;;;;;5051616;28;20229;-79
2023/12/05 08:49:52;;;;;;;2.27;2.17;;;;;;;;;;5051391;28;20263;-78
2023/12/05 08:52:20;;;;;;;2.20;2.10;;;;;;;;;;5047950;28;20233;-78
2023/12/05 08:54:47;;;;;;;5.53;2.40;;;;;;;;;;5051696;28;20217;-78
2023/12/05 08:57:14;;;;;;;1.50;1.50;;;;;;;;;;5051071;28;20230;-79
2023/12/05 08:59:42;;;;;;;5.70;1.83;;;;;;;;;;5050881;28;20645;-79
2023/12/05 09:02:09;;;;;;;1.70;1.70;;;;;;;;;;5050976;28;20240;-79
2023/12/05 09:04:38;;;;;;;2.70;2.10;;;;;;;;;;5051539;28;20764;-79
2023/12/05 09:07:06;;;;;;;1.57;1.57;;;;;;;;;;5042476;28;20284;-79
2023/12/05 09:09:33;;;;;;;1.50;1.50;;;;;;;;;;5050952;28;20206;-79
2023/12/05 09:12:00;;;;;;;2.33;1.67;;;;;;;;;;5050114;28;20242;-78
2023/12/05 09:14:27;;;;;;;2.10;2.00;;;;;;;;;;5051645;28;20216;-79
2023/12/05 09:16:54;;;;;;;2.10;2.00;;;;;;;;;;5050287;28;20713;-78
2023/12/05 09:19:21;;;;;;;1.50;1.50;;;;;;;;;;5051394;28;20280;-79
2023/12/05 09:21:52;;;;;;;1.90;1.80;;;;;;;;;;5050080;28;20241;-79
2023/12/05 09:24:19;;;;;;;1.67;1.60;;;;;;;;;;5051573;28;20205;-79
2023/12/05 09:26:46;;;;;;;1.93;1.87;;;;;;;;;;5050608;28;20242;-78
2023/12/05 09:29:13;;;;;;;3.00;2.03;;;;;;;;;;5051097;28;20204;-79
2023/12/05 09:31:40;;;;;;;1.97;1.80;;;;;;;;;;5050730;28;20309;-79
2023/12/05 09:34:07;;;;;;;1.50;1.50;;;;;;;;;;5049984;28;20217;-79
2023/12/05 09:36:34;;;;;;;1.67;1.57;;;;;;;;;;5050761;28;20284;-79
2023/12/05 09:39:04;;;;;;;2.50;2.07;;;;;;;;;;5050696;28;20909;-80
2023/12/05 09:41:31;;;;;;;1.93;1.83;;;;;;;;;;5050806;28;20228;-79
2023/12/05 09:44:00;;;;;;;1.93;1.83;;;;;;;;;;5044046;28;20225;-79
2023/12/05 09:46:28;;;;;;;1.70;1.67;;;;;;;;;;5050671;28;20291;-79
2023/12/05 09:49:00;;;;;;;1.20;1.20;;;;;;;;;;5050630;28;20271;-78
2023/12/05 09:51:28;;;;;;;1.80;1.70;;;;;;;;;;5050640;28;20238;-79
2023/12/05 09:53:56;;;;;;;1.70;1.60;;;;;;;;;;5038551;28;20317;-79
2023/12/05 09:56:24;;;;;;;1.73;1.63;;;;;;;;;;5050355;28;20238;-79
2023/12/05 09:58:53;;;;;;;1.63;1.53;;;;;;;;;;5050099;28;20222;-79
2023/12/05 10:01:20;;;;;;;2.20;1.50;;;;;;;;;;5050335;28;20287;-79
2023/12/05 10:03:52;;;;;;;2.00;1.90;;;;;;;;;;5049862;28;20749;-78
2023/12/05 10:06:20;;;;;;;2.00;1.90;;;;;;;;;;5050444;28;20229;-79
2023/12/05 10:08:47;;;;;;;1.90;1.80;;;;;;;;;;5049847;28;20624;-80
2023/12/05 10:11:15;;;;;;;1.83;1.73;;;;;;;;;;5050091;28;20622;-79
2023/12/05 10:13:43;;;;;;;3.23;2.37;;;;;;;;;;5044655;28;20688;-79
2023/12/05 10:16:10;;;;;;;2.00;1.80;;;;;;;;;;5049816;28;20240;-80
2023/12/05 10:18:39;;;;;;;2.00;1.70;;;;;;;;;;5048912;28;20226;-78
2023/12/05 10:21:06;;;;;;;1.70;1.70;;;;;;;;;;5049018;28;20278;-78
2023/12/05 10:23:33;;;;;;;1.83;1.77;;;;;;;;;;5047283;28;20263;-79
2023/12/05 10:26:00;;;;;;;1.63;1.53;;;;;;;;;;5049896;28;20237;-79
2023/12/05 10:28:27;;;;;;;2.43;1.70;;;;;;;;;;5050081;28;20202;-79
2023/12/05 10:30:57;;;;;;;1.40;1.40;;;;;;;;;;5042119;28;20288;-79
2023/12/05 10:33:24;;;;;;;1.43;1.43;;;;;;;;;;5047832;28;20198;-79
2023/12/05 10:35:51;;;;;;;1.60;1.50;;;;;;;;;;5047784;28;20230;-79
2023/12/05 10:38:19;;;;;;;1.63;1.63;;;;;;;;;;5048455;28;20669;-79
2023/12/05 10:40:53;;;;;;;4.07;1.70;;;;;;;;;;5047886;28;20627;-79
2023/12/05 10:43:21;;;;;;;1.70;1.60;;;;;;;;;;5044231;28;20209;-79
2023/12/05 10:45:48;;;;;;;1.53;1.53;;;;;;;;;;5047713;28;20324;-79
2023/12/05 10:48:17;;;;;;;1.67;1.67;;;;;;;;;;5048686;28;20198;-78
2023/12/05 10:50:45;;;;;;;1.77;1.77;;;;;;;;;;5048019;28;20245;-80
2023/12/05 10:53:13;;;;;;;2.00;1.90;;;;;;;;;;5044462;28;20754;-79
2023/12/05 10:55:40;;;;;;;1.60;1.57;;;;;;;;;;5048124;28;20248;-79
2023/12/05 10:58:08;;;;;;;1.87;1.40;;;;;;;;;;5048562;28;20305;-79
2023/12/05 11:00:37;;;;;;;1.70;1.70;;;;;;;;;;5049650;28;20579;-79
2023/12/05 11:03:04;;;;;;;1.60;1.60;;;;;;;;;;5050323;28;20210;-79
2023/12/05 11:05:33;;;;;;;1.60;1.50;;;;;;;;;;5050296;28;20291;-79
2023/12/05 11:08:00;;;;;;;2.00;1.90;;;;;;;;;;5050134;28;20259;-79
2023/12/05 11:10:28;;;;;;;1.40;1.40;;;;;;;;;;5049333;28;20287;-79
2023/12/05 11:12:55;;;;;;;1.63;1.53;;;;;;;;;;5050147;28;20222;-78
2023/12/05 11:15:23;;;;;;;1.70;1.60;;;;;;;;;;5049789;28;20722;-78
2023/12/05 11:17:51;;;;;;;1.60;1.50;;;;;;;;;;5042144;28;20555;-80
2023/12/05 11:20:29;;;;;;;1.60;1.50;;;;;;;;;;5049674;28;20225;-79
2023/12/05 11:23:07;;;;;;;1.50;1.50;;;;;;;;;;5050225;28;20301;-80
2023/12/05 11:25:41;;;;;;;1.93;1.80;;;;;;;;;;5049771;28;20291;-78
2023/12/05 11:28:18;;;;;;;1.60;1.60;;;;;;;;;;5050335;28;20635;-80
2023/12/05 11:30:53;;;;;;;1.37;1.37;;;;;;;;;;5052978;28;20283;-79
2023/12/05 11:33:31;;;;;;;1.20;1.20;;;;;;;;;;5047079;28;20292;-80
2023/12/05 11:36:03;;;;;;;1.30;1.30;;;;;;;;;;5053564;28;20316;-79
2023/12/05 11:38:32;;;;;;;1.40;1.40;;;;;;;;;;5054298;28;20664;-79
2023/12/05 11:41:11;;;;;;;1.60;1.60;;;;;;;;;;5053407;28;20241;-79
2023/12/05 11:43:38;;;;;;;1.33;1.33;;;;;;;;;;5054719;28;20243;-80
2023/12/05 11:46:05;;;;;;;1.90;1.80;;;;;;;;;;5053399;28;20662;-80
2023/12/05 11:48:33;;;;;;;2.80;1.70;;;;;;;;;;5054316;28;20216;-80
2023/12/05 11:51:00;;;;;;;1.30;1.30;;;;;;;;;;5053368;28;20233;-80
2023/12/05 11:53:27;;;;;;;3.50;1.70;;;;;;;;;;5054469;28;20208;-80
2023/12/05 11:55:56;;;;;;;2.67;1.73;;;;;;;;;;5053386;28;20245;-80
2023/12/05 11:58:26;;;;;;;2.00;1.83;;;;;;;;;;5053734;28;20260;-79
2023/12/05 12:01:01;;;;;;;1.57;1.50;;;;;;;;;;5052868;28;20260;-80
2023/12/05 12:03:28;;;;;;;1.70;1.60;;;;;;;;;;5053917;28;20301;-79
2023/12/05 12:06:03;;;;;;;2.00;1.90;;;;;;;;;;5053293;28;20248;-78
2023/12/05 12:08:30;;;;;;;1.73;1.40;;;;;;;;;;5053793;28;20202;-79
2023/12/05 12:10:59;;;;;;;1.63;1.53;;;;;;;;;;5052538;28;20310;-79
2023/12/05 12:13:26;;;;;;;1.60;1.50;;;;;;;;;;5053695;28;20213;-79
2023/12/05 12:15:54;;;;;;;1.90;1.80;;;;;;;;;;5053177;28;20789;-79
2023/12/05 12:18:25;;;;;;;1.67;1.50;;;;;;;;;;5053411;28;20575;-79
2023/12/05 12:20:52;;;;;;;1.60;1.60;;;;;;;;;;5052719;28;20261;-80
2023/12/05 12:23:20;;;;;;;2.57;2.20;;;;;;;;;;5053119;28;20640;-79
2023/12/05 12:25:52;;;;;;;1.40;1.40;;;;;;;;;;5053180;28;20837;-79
2023/12/05 12:28:28;;;;;;;1.60;1.50;;;;;;;;;;5053528;28;20205;-79
2023/12/05 12:30:55;;;;;;;2.20;1.80;;;;;;;;;;5052314;28;20237;-79
2023/12/05 12:33:28;;;;;;;2.20;1.60;;;;;;;;;;5053135;28;20555;-79
2023/12/05 12:35:55;;;;;;;1.97;1.77;;;;;;;;;;5052470;28;20242;-79
2023/12/05 12:38:22;;;;;;;2.23;2.03;;;;;;;;;;5053293;28;20195;-79
2023/12/05 12:40:50;;;;;;;1.50;1.50;;;;;;;;;;5051971;28;20704;-80
2023/12/05 12:43:17;;;;;;;1.90;1.80;;;;;;;;;;5044520;28;20215;-79
2023/12/05 12:45:45;;;;;;;1.50;1.40;;;;;;;;;;5052688;28;20258;-80
2023/12/05 12:48:12;;;;;;;1.87;1.67;;;;;;;;;;5052697;28;20217;-79
2023/12/05 12:50:39;;;;;;;2.00;1.90;;;;;;;;;;5051319;28;20653;-80
2023/12/05 12:53:06;;;;;;;1.60;1.50;;;;;;;;;;5052819;28;20275;-79
2023/12/05 12:55:34;;;;;;;3.40;1.70;;;;;;;;;;5052612;28;20284;-79
2023/12/05 12:58:01;;;;;;;2.10;1.97;;;;;;;;;;5052962;28;20751;-79
2023/12/05 13:00:28;;;;;;;2.20;1.60;;;;;;;;;;5051387;28;20237;-79
2023/12/05 13:02:58;;;;;;;2.87;1.73;;;;;;;;;;5052831;28;20213;-79
2023/12/05 13:05:32;;;;;;;2.03;1.70;;;;;;;;;;5046083;28;20253;-79
2023/12/05 13:08:00;;;;;;;1.87;1.77;;;;;;;;;;5048612;28;20770;-79
2023/12/05 13:10:27;;;;;;;1.60;1.50;;;;;;;;;;5050684;28;20603;-79
2023/12/05 13:12:54;;;;;;;1.57;1.57;;;;;;;;;;5051588;28;20300;-80
2023/12/05 13:15:26;;;;;;;1.80;1.70;;;;;;;;;;5051138;28;20636;-79
2023/12/05 13:18:02;;;;;;;1.73;1.63;;;;;;;;;;5043530;28;20202;-79
2023/12/05 13:20:30;;;;;;;1.37;1.37;;;;;;;;;;5044025;28;20237;-79
2023/12/05 13:22:58;;;;;;;1.27;1.27;;;;;;;;;;5050952;28;20243;-79
2023/12/05 13:25:25;;;;;;;1.70;1.60;;;;;;;;;;5050712;28;20320;-79
2023/12/05 13:27:52;;;;;;;1.80;1.70;;;;;;;;;;5051148;28;20214;-79
2023/12/05 13:30:20;;;;;;;1.30;1.30;;;;;;;;;;5043572;28;20206;-79
2023/12/05 13:32:47;;;;;;;1.67;1.67;;;;;;;;;;5050810;28;20260;-79
2023/12/05 13:35:15;;;;;;;1.53;1.53;;;;;;;;;;5050231;28;20213;-80
2023/12/05 13:37:42;;;;;;;1.37;1.37;;;;;;;;;;5051634;28;20229;-79
2023/12/05 13:40:10;;;;;;;1.20;1.20;;;;;;;;;;5049050;28;20311;-80
2023/12/05 13:42:37;;;;;;;2.47;2.10;;;;;;;;;;5051964;28;20229;-79
2023/12/05 13:45:05;;;;;;;1.57;1.47;;;;;;;;;;5051333;28;20252;-79
2023/12/05 13:47:32;;;;;;;2.00;1.73;;;;;;;;;;5052510;28;20233;-79
2023/12/05 13:49:59;;;;;;;1.73;1.63;;;;;;;;;;5052059;28;20207;-80
2023/12/05 13:52:28;;;;;;;2.23;2.13;;;;;;;;;;5043967;28;20704;-79
2023/12/05 13:54:55;;;;;;;1.97;1.70;;;;;;;;;;5051498;28;20618;-80
2023/12/05 13:57:22;;;;;;;1.60;1.60;;;;;;;;;;5051353;28;20241;-80
2023/12/05 13:59:49;;;;;;;1.70;1.60;;;;;;;;;;5052036;28;20236;-79
2023/12/05 14:02:16;;;;;;;1.80;1.70;;;;;;;;;;5051668;28;20379;-80
2023/12/05 14:04:43;;;;;;;2.10;2.00;;;;;;;;;;5052269;28;20668;-80
2023/12/05 14:07:09;;;;;;;3.13;1.60;;;;;;;;;;5051626;28;20712;-80
2023/12/05 14:09:37;;;;;;;1.90;1.80;;;;;;;;;;5052261;28;20288;-79
2023/12/05 14:12:11;;;;;;;1.73;1.63;;;;;;;;;;5051731;28;20233;-79
2023/12/05 14:14:38;;;;;;;1.60;1.53;;;;;;;;;;5051856;28;20283;-79
2023/12/05 14:17:05;;;;;;;1.60;1.50;;;;;;;;;;5051611;28;20238;-79
2023/12/05 14:19:32;;;;;;;1.50;1.40;;;;;;;;;;5051957;28;20205;-79
2023/12/05 14:21:59;;;;;;;1.93;1.70;;;;;;;;;;5051696;28;20660;-79
2023/12/05 14:24:26;;;;;;;1.13;1.13;;;;;;;;;;5051766;28;20677;-79
2023/12/05 14:26:55;;;;;;;1.77;1.67;;;;;;;;;;5051616;28;20237;-79
2023/12/05 14:29:22;;;;;;;1.37;1.37;;;;;;;;;;5051451;28;20222;-79
2023/12/05 14:31:48;;;;;;;1.83;1.73;;;;;;;;;;5051740;28;20234;-79
2023/12/05 14:34:15;;;;;;;1.47;1.30;;;;;;;;;;5051754;28;20206;-79
2023/12/05 14:36:42;;;;;;;1.70;1.60;;;;;;;;;;5051536;28;20242;-79
2023/12/05 14:39:09;;;;;;;1.67;1.60;;;;;;;;;;5051529;28;20602;-79
2023/12/05 14:41:37;;;;;;;1.30;1.30;;;;;;;;;;5051340;28;20234;-79
2023/12/05 14:44:05;;;;;;;1.93;1.83;;;;;;;;;;5051605;28;20264;-79